Terminal Aerodrome Forecast
Issued by NWS

Home | Current Version | Previous Version | Text Only | Print | Product List | Glossary On
Versions: 1 2 3 4 5 6 7 8 9 10 11 12 13 14 15 16 17 18 19
000
FTUS44 KLIX 032300
TAFGPT
TAF
KGPT 032338Z 0400/0424 14011KT P6SM FEW035
     FM040300 15004KT 3SM BR BKN003
     FM040600 15003KT 1/2SM FG BKN003
     FM041600 17008KT P6SM BKN008=

USA.gov is the U.S. government's official web portal to all federal, state and local government web resources and services.